createdAt,value
2014-09-25T00:01:37.857Z,100877
2014-09-25T00:09:38.436Z,100904
2014-09-25T00:17:39.044Z,100909
2014-09-25T00:24:39.575Z,100904
2014-09-25T00:33:40.200Z,100915
2014-09-25T00:40:40.746Z,100898
2014-09-25T00:47:41.275Z,100918
2014-09-25T00:55:41.869Z,100915
2014-09-25T01:03:42.478Z,100912
2014-09-25T01:11:43.054Z,100915
2014-09-25T01:19:43.640Z,100927
2014-09-25T01:28:44.281Z,100939
2014-09-25T01:38:44.972Z,100927
2014-09-25T01:47:45.599Z,100941
2014-09-25T01:55:46.192Z,100962
2014-09-25T02:04:46.835Z,100941
2014-09-25T02:13:47.461Z,100950
2014-09-25T02:22:48.103Z,100974
2014-09-25T02:31:48.746Z,100971
2014-09-25T05:17:24.478Z,101072
2014-09-25T05:27:25.169Z,101078
2014-09-25T05:35:25.748Z,101069
2014-09-25T05:43:26.345Z,101095
2014-09-25T05:50:26.907Z,101106
2014-09-25T18:35:35.351Z,101565
2014-09-25T18:44:35.992Z,101571
2014-09-25T18:51:36.520Z,101562
2014-09-25T19:01:37.103Z,101568
2014-09-25T19:08:37.646Z,101589
2014-09-25T19:15:38.193Z,101586
2014-09-25T19:23:38.786Z,101598
2014-09-25T19:31:39.364Z,101594
2014-09-25T19:41:40.055Z,101597
2014-09-25T19:51:40.746Z,101614
2014-09-25T19:58:41.291Z,101614
2014-09-25T20:07:41.933Z,101623
2014-09-25T20:15:42.525Z,101620
2014-09-25T20:24:43.154Z,101617
2014-09-25T20:31:43.697Z,101626
2014-09-25T20:38:44.243Z,101626
2014-09-25T20:47:44.884Z,101652
2014-09-25T20:54:45.415Z,101644
2014-09-25T21:02:46.008Z,101644
2014-09-25T21:10:46.673Z,101644
2014-09-25T21:17:47.419Z,101653
2014-09-25T21:25:48.038Z,101656
2014-09-25T21:32:48.609Z,101662
2014-09-25T21:41:49.252Z,101650
2014-09-25T21:50:49.896Z,101655
2014-09-25T21:58:50.489Z,101653
2014-09-25T22:05:51.018Z,101665
2014-09-25T22:14:51.675Z,101662
2014-09-25T22:24:52.366Z,101665
2014-09-25T22:33:53.008Z,101656
2014-09-25T22:41:53.602Z,101665
2014-09-25T22:48:54.130Z,101662
2014-09-25T22:58:54.822Z,101656
2014-09-25T23:05:55.366Z,101644
2014-09-25T23:12:55.897Z,101653
2014-09-25T23:21:56.538Z,101656
2014-09-25T23:28:57.084Z,101644
2014-09-25T23:36:57.661Z,101638
